Карточка аэропорта USTR

Внимание!
Информация на этой странице в стадии наполнения.
Если вы не увидели какой-то информации, или заметили неточность - пожалуйста сообщите нам!
Спасибо!
Команда RU-STAFF
Название аэропортаРощино
Название аэропорта (англ.)Roshschino
Превышение378 ft. (115.2 m.)
Координаты57°10.098', 65°19.002'
Высота перехода700m
Эшелон переходаFL040
Коды ответчика5101-5137
Зона ОрВДТюмень РПИ (USTV)
Данные METARUSTR 100800Z 26002MPS 2700 -SHSN FEW012 OVC032CB M10/M12 Q1032 R30/490238 R21/490238 TEMPO 1000 SHSN VV004
Проноз погоды (TAF)USTR 100451Z 1006/1106 27003G09MPS 4000 -SHSN DRSN BKN016CB TEMPO 1006/1009 0500 +SHSN VV003 FM100900 24003G08MPS 3100 -SN BR SCT007 OVC016 TEMPO 1009/1024 22006G11MPS 0800 +SN VV003
NOTAMshow/hide NOTAM
AWOS   TABLE

Информация о ВПП

ВПП Длина ВПП (м.) Покрытие Курс ВПП Частота ILS
213003Асфальтобетон214110.7
033003Асфальтобетон34108.3
122704Асфальтобетон121 
302704Асфальтобетон301 

Диспетчерские позиции

Позывной Наименование органа УВД Частота
USTR_TWRТюмень-Старт118.200
USTR_GNDТюмень-Руление119.000
USTR_R_APPТюмень-Круг126.100



Спутниковое изображение